Time,TemperatureF,DewpointF,PressureIn,WindDirection,WindDirectionDegrees,WindSpeedMPH,WindSpeedGustMPH,Humidity,HourlyPrecipIn,Conditions,Clouds,dailyrainin,SoftwareType,DateUTC
2013-01-09 00:00:00,33.9,28.4,30.33,ESE,109,3.0,3.0,80,0.00,,CLR,0.00,VWS V14.01,2013-01-09 05:00:00,
2013-01-09 00:01:00,33.9,28.4,30.33,ESE,120,2.0,3.0,80,0.00,,CLR,0.00,VWS V14.01,2013-01-09 05:01:00,
2013-01-09 00:02:00,33.9,28.4,30.33,East,98,2.0,3.0,80,0.00,,CLR,0.00,VWS V14.01,2013-01-09 05:02:00,
2013-01-09 00:03:00,33.8,28.3,30.33,East,92,2.0,3.0,80,0.00,,CLR,0.00,VWS V14.01,2013-01-09 05:03:00,
2013-01-09 00:08:00,33.8,28.3,30.33,East,98,2.0,2.0,80,0.00,,CLR,0.00,VWS V14.01,2013-01-09 05:08:00,
2013-01-09 00:13:00,33.7,28.2,30.33,East,91,2.0,3.0,80,0.00,,CLR,0.00,VWS V14.01,2013-01-09 05:13:00,
2013-01-09 00:18:00,33.7,28.2,30.33,ESE,104,4.0,4.0,80,0.00,,CLR,0.00,VWS V14.01,2013-01-09 05:18:00,
2013-01-09 00:23:00,33.7,28.2,30.33,East,82,2.0,3.0,80,0.00,,CLR,0.00,VWS V14.01,2013-01-09 05:23:00,
2013-01-09 00:28:00,33.6,28.1,30.33,East,89,2.0,4.0,80,0.00,,CLR,0.00,VWS V14.01,2013-01-09 05:28:00,
2013-01-09 00:33:00,33.4,27.9,30.33,East,90,1.0,1.0,80,0.00,,CLR,0.00,VWS V14.01,2013-01-09 05:33:00,
2013-01-09 00:38:00,33.2,28.0,30.33,East,91,2.0,3.0,81,0.00,,CLR,0.00,VWS V14.01,2013-01-09 05:38:00,
2013-01-09 00:43:00,33.0,27.8,30.33,East,93,1.0,2.0,81,0.00,,CLR,0.00,VWS V14.01,2013-01-09 05:43:00,
2013-01-09 00:48:00,33.0,27.8,30.33,East,79,0.0,1.0,81,0.00,,CLR,0.00,VWS V14.01,2013-01-09 05:48:00,
2013-01-09 00:53:00,32.9,27.7,30.33,ENE,68,0.0,1.0,81,0.00,,CLR,0.00,VWS V14.01,2013-01-09 05:53:00,
2013-01-09 00:58:00,32.8,27.6,30.33,ENE,68,0.0,1.0,81,0.00,,CLR,0.00,VWS V14.01,2013-01-09 05:58:00,
2013-01-09 01:03:00,32.7,27.8,30.33,ENE,68,0.0,1.0,82,0.00,,CLR,0.00,VWS V14.01,2013-01-09 06:03:00,
2013-01-09 01:08:00,32.7,27.5,30.33,ENE,68,0.0,1.0,81,0.00,,CLR,0.00,VWS V14.01,2013-01-09 06:08:00,
2013-01-09 01:13:00,32.5,27.3,30.33,ENE,68,0.0,0.0,81,0.00,,CLR,0.00,VWS V14.01,2013-01-09 06:13:00,
2013-01-09 01:18:00,32.2,27.3,30.32,ENE,68,1.0,1.0,82,0.00,,CLR,0.00,VWS V14.01,2013-01-09 06:18:00,
2013-01-09 01:23:00,32.2,27.3,30.32,ENE,68,0.0,0.0,82,0.00,,CLR,0.00,VWS V14.01,2013-01-09 06:23:00,
2013-01-09 01:28:00,32.1,27.2,30.32,ENE,68,0.0,1.0,82,0.00,,CLR,0.00,VWS V14.01,2013-01-09 06:28:00,
2013-01-09 01:33:00,32.1,27.2,30.32,ENE,69,0.0,1.0,82,0.00,,CLR,0.00,VWS V14.01,2013-01-09 06:33:00,
2013-01-09 01:38:00,32.2,27.3,30.32,East,97,1.0,1.0,82,0.00,,CLR,0.00,VWS V14.01,2013-01-09 06:38:00,
2013-01-09 01:43:00,32.1,27.2,30.32,East,82,1.0,1.0,82,0.00,,CLR,0.00,VWS V14.01,2013-01-09 06:43:00,
2013-01-09 01:48:00,32.1,27.2,30.32,East,82,1.0,1.0,82,0.00,,CLR,0.00,VWS V14.01,2013-01-09 06:48:00,
2013-01-09 01:53:00,31.8,26.9,30.32,East,80,1.0,1.0,82,0.00,,CLR,0.00,VWS V14.01,2013-01-09 06:53:00,
2013-01-09 01:58:00,31.8,27.2,30.32,East,101,1.0,1.0,83,0.00,,CLR,0.00,VWS V14.01,2013-01-09 06:58:00,
2013-01-09 02:03:00,31.7,27.1,30.32,East,98,2.0,2.0,83,0.00,,BKN220,0.00,VWS V14.01,2013-01-09 07:03:00,
2013-01-09 02:08:00,31.7,27.1,30.32,East,99,1.0,2.0,83,0.00,,BKN220,0.00,VWS V14.01,2013-01-09 07:08:00,
2013-01-09 02:13:00,31.9,27.0,30.32,East,95,1.0,1.0,82,0.00,,BKN220,0.00,VWS V14.01,2013-01-09 07:13:00,
2013-01-09 02:18:00,31.9,27.0,30.32,ENE,71,0.0,1.0,82,0.00,,BKN220,0.00,VWS V14.01,2013-01-09 07:18:00,
2013-01-09 02:22:00,31.9,27.0,30.32,ESE,115,2.0,2.0,82,0.00,,BKN220,0.00,VWS V14.01,2013-01-09 07:22:00,
2013-01-09 02:27:00,32.1,27.2,30.32,East,95,0.0,1.0,82,0.00,,BKN220,0.00,VWS V14.01,2013-01-09 07:27:00,
2013-01-09 02:32:00,32.2,27.0,30.32,East,87,1.0,1.0,81,0.00,,BKN220,0.00,VWS V14.01,2013-01-09 07:32:00,
2013-01-09 02:37:00,32.0,27.1,30.32,East,79,1.0,1.0,82,0.00,,BKN220,0.00,VWS V14.01,2013-01-09 07:37:00,
2013-01-09 02:42:00,31.8,26.9,30.32,East,82,0.0,1.0,82,0.00,,BKN220,0.00,VWS V14.01,2013-01-09 07:42:00,
2013-01-09 02:47:00,31.6,26.8,30.32,East,83,0.0,1.0,82,0.00,,BKN220,0.00,VWS V14.01,2013-01-09 07:47:00,
2013-01-09 02:52:00,31.7,26.8,30.32,East,83,0.0,0.0,82,0.00,,BKN220,0.00,VWS V14.01,2013-01-09 07:52:00,
2013-01-09 02:57:00,31.7,26.8,30.32,East,83,0.0,1.0,82,0.00,,BKN220,0.00,VWS V14.01,2013-01-09 07:57:00,
2013-01-09 03:02:00,31.5,26.6,30.31,East,83,0.0,1.0,82,0.00,,BKN220,0.00,VWS V14.01,2013-01-09 08:02:00,
2013-01-09 03:07:00,31.2,26.6,30.32,East,84,0.0,1.0,83,0.00,,BKN220,0.00,VWS V14.01,2013-01-09 08:07:00,
2013-01-09 03:12:00,31.4,26.8,30.32,East,83,0.0,1.0,83,0.00,,BKN220,0.00,VWS V14.01,2013-01-09 08:12:00,
2013-01-09 03:17:00,31.6,27.0,30.32,East,83,1.0,1.0,83,0.00,,BKN220,0.00,VWS V14.01,2013-01-09 08:17:00,
2013-01-09 03:22:00,31.9,27.0,30.31,East,96,2.0,2.0,82,0.00,,BKN220,0.00,VWS V14.01,2013-01-09 08:22:00,
2013-01-09 03:27:00,32.3,27.1,30.31,ESE,104,1.0,1.0,81,0.00,,BKN220,0.00,VWS V14.01,2013-01-09 08:27:00,
2013-01-09 03:32:00,32.6,27.4,30.31,East,98,2.0,2.0,81,0.00,,BKN220,0.00,VWS V14.01,2013-01-09 08:32:00,
2013-01-09 03:37:00,32.8,27.3,30.31,ESE,108,1.0,3.0,80,0.00,,BKN220,0.00,VWS V14.01,2013-01-09 08:37:00,
2013-01-09 03:42:00,33.1,27.3,30.31,ESE,107,1.0,2.0,79,0.00,,BKN220,0.00,VWS V14.01,2013-01-09 08:42:00,
2013-01-09 03:47:00,33.3,27.5,30.31,ESE,117,2.0,2.0,79,0.00,,BKN220,0.00,VWS V14.01,2013-01-09 08:47:00,
2013-01-09 03:52:00,33.6,27.8,30.30,ESE,108,3.0,3.0,79,0.00,,BKN220,0.00,VWS V14.01,2013-01-09 08:52:00,
2013-01-09 03:57:00,33.8,27.7,30.30,ESE,104,1.0,2.0,78,0.00,,BKN220,0.00,VWS V14.01,2013-01-09 08:57:00,
2013-01-09 04:02:00,34.0,27.9,30.30,ENE,75,2.0,2.0,78,0.00,,OVC100,0.00,VWS V14.01,2013-01-09 09:02:00,
2013-01-09 04:07:00,34.3,28.2,30.31,East,84,0.0,1.0,78,0.00,,OVC100,0.00,VWS V14.01,2013-01-09 09:07:00,
2013-01-09 04:12:00,34.5,28.4,30.31,ENE,73,1.0,1.0,78,0.00,,OVC100,0.00,VWS V14.01,2013-01-09 09:12:00,
2013-01-09 04:17:00,34.4,28.3,30.31,ENE,78,0.0,1.0,78,0.00,,OVC100,0.00,VWS V14.01,2013-01-09 09:17:00,
2013-01-09 04:22:00,34.5,28.7,30.31,ENE,78,0.0,1.0,79,0.00,,OVC100,0.00,VWS V14.01,2013-01-09 09:22:00,
2013-01-09 04:27:00,34.7,28.5,30.30,ENE,77,0.0,1.0,78,0.00,,OVC100,0.00,VWS V14.01,2013-01-09 09:27:00,
2013-01-09 04:32:00,34.8,28.6,30.31,ENE,77,0.0,0.0,78,0.00,,OVC100,0.00,VWS V14.01,2013-01-09 09:32:00,
2013-01-09 04:37:00,34.9,28.8,30.30,ENE,78,1.0,1.0,78,0.00,,OVC100,0.00,VWS V14.01,2013-01-09 09:37:00,
2013-01-09 04:42:00,35.0,28.9,30.30,ENE,77,0.0,0.0,78,0.00,,OVC100,0.00,VWS V14.01,2013-01-09 09:42:00,
2013-01-09 04:47:00,34.9,28.8,30.30,ENE,64,0.0,1.0,78,0.00,,OVC100,0.00,VWS V14.01,2013-01-09 09:47:00,
2013-01-09 04:52:00,34.9,29.1,30.30,ENE,64,0.0,1.0,79,0.00,,OVC100,0.00,VWS V14.01,2013-01-09 09:52:00,
2013-01-09 04:57:00,34.9,29.1,30.30,ENE,64,1.0,1.0,79,0.00,,OVC100,0.00,VWS V14.01,2013-01-09 09:57:00,
2013-01-09 05:02:00,35.1,29.3,30.29,ENE,70,0.0,1.0,79,0.00,,OVC110,0.00,VWS V14.01,2013-01-09 10:02:00,
2013-01-09 05:07:00,35.3,29.5,30.30,ENE,71,0.0,1.0,79,0.00,,OVC110,0.00,VWS V14.01,2013-01-09 10:07:00,
2013-01-09 05:12:00,35.4,29.5,30.29,ENE,71,0.0,0.0,79,0.00,,OVC110,0.00,VWS V14.01,2013-01-09 10:12:00,
2013-01-09 05:17:00,35.9,29.7,30.29,SE,131,0.0,0.0,78,0.00,,OVC110,0.00,VWS V14.01,2013-01-09 10:17:00,
2013-01-09 05:22:00,36.4,30.2,30.29,South,180,2.0,2.0,78,0.00,,OVC110,0.00,VWS V14.01,2013-01-09 10:22:00,
2013-01-09 05:27:00,37.0,30.8,30.29,SSE,158,1.0,2.0,78,0.00,,OVC110,0.00,VWS V14.01,2013-01-09 10:27:00,
2013-01-09 05:32:00,37.7,31.8,30.29,South,186,2.0,3.0,79,0.00,,OVC110,0.00,VWS V14.01,2013-01-09 10:32:00,
2013-01-09 05:37:00,38.7,32.8,30.29,SW,217,5.0,6.0,79,0.00,,OVC110,0.00,VWS V14.01,2013-01-09 10:37:00,
2013-01-09 05:42:00,39.9,33.6,30.29,SSW,212,4.0,7.0,78,0.00,,OVC110,0.00,VWS V14.01,2013-01-09 10:42:00,
2013-01-09 05:47:00,40.9,34.6,30.29,WSW,238,6.0,8.0,78,0.00,,OVC110,0.00,VWS V14.01,2013-01-09 10:47:00,
2013-01-09 05:52:00,41.5,34.8,30.29,SSW,211,5.0,10.0,77,0.00,,OVC110,0.00,VWS V14.01,2013-01-09 10:52:00,
2013-01-09 05:57:00,42.0,35.3,30.29,WSW,253,10.0,12.0,77,0.00,,OVC110,0.00,VWS V14.01,2013-01-09 10:57:00,
2013-01-09 06:02:00,42.2,35.5,30.29,SW,232,5.0,10.0,77,0.00,,OVC100,0.00,VWS V14.01,2013-01-09 11:02:00,
2013-01-09 06:07:00,42.4,35.7,30.30,WSW,251,5.0,11.0,77,0.00,,OVC100,0.00,VWS V14.01,2013-01-09 11:07:00,
2013-01-09 06:12:00,42.5,35.8,30.30,South,190,7.0,13.0,77,0.00,,OVC100,0.00,VWS V14.01,2013-01-09 11:12:00,
2013-01-09 06:17:00,42.8,36.1,30.30,SW,214,12.0,13.0,77,0.00,,OVC100,0.00,VWS V14.01,2013-01-09 11:17:00,
2013-01-09 06:22:00,42.9,36.2,30.30,SSW,211,11.0,13.0,77,0.00,,OVC100,0.00,VWS V14.01,2013-01-09 11:22:00,
2013-01-09 06:27:00,43.1,36.4,30.30,SW,231,7.0,11.0,77,0.00,,OVC100,0.00,VWS V14.01,2013-01-09 11:27:00,
2013-01-09 06:32:00,43.2,36.2,30.30,SW,217,5.0,13.0,76,0.00,,OVC100,0.00,VWS V14.01,2013-01-09 11:32:00,
2013-01-09 06:37:00,43.4,36.3,30.30,SSW,211,5.0,13.0,76,0.00,,OVC100,0.00,VWS V14.01,2013-01-09 11:37:00,
2013-01-09 06:42:00,43.5,36.5,30.30,SSW,211,9.0,13.0,76,0.00,,OVC100,0.00,VWS V14.01,2013-01-09 11:42:00,
2013-01-09 06:47:00,43.7,36.6,30.31,WSW,243,12.0,14.0,76,0.00,,OVC100,0.00,VWS V14.01,2013-01-09 11:47:00,
2013-01-09 06:52:00,43.8,36.7,30.31,WSW,240,10.0,10.0,76,0.00,,OVC100,0.00,VWS V14.01,2013-01-09 11:52:00,
2013-01-09 06:57:00,43.9,36.8,30.31,SSW,211,10.0,13.0,76,0.00,,OVC100,0.00,VWS V14.01,2013-01-09 11:57:00,
2013-01-09 07:02:00,43.8,36.7,30.32,SSW,210,9.0,13.0,76,0.00,,OVC075,0.00,VWS V14.01,2013-01-09 12:02:00,
2013-01-09 07:07:00,43.8,36.7,30.32,SW,233,10.0,12.0,76,0.00,,OVC075,0.00,VWS V14.01,2013-01-09 12:07:00,
2013-01-09 07:12:00,43.9,36.8,30.32,SSW,204,4.0,14.0,76,0.00,,OVC075,0.00,VWS V14.01,2013-01-09 12:12:00,
2013-01-09 07:17:00,43.7,36.6,30.31,SW,224,13.0,15.0,76,0.00,,OVC075,0.00,VWS V14.01,2013-01-09 12:17:00,
2013-01-09 07:22:00,43.8,36.7,30.32,SW,225,9.0,12.0,76,0.00,,OVC075,0.00,VWS V14.01,2013-01-09 12:22:00,
2013-01-09 07:27:00,43.7,36.6,30.32,SW,229,9.0,13.0,76,0.00,,OVC075,0.00,VWS V14.01,2013-01-09 12:27:00,
2013-01-09 07:32:00,43.6,36.9,30.33,SSW,196,5.0,15.0,77,0.00,,OVC075,0.00,VWS V14.01,2013-01-09 12:32:00,
2013-01-09 07:37:00,43.5,37.1,30.33,WSW,258,6.0,11.0,78,0.00,,OVC075,0.00,VWS V14.01,2013-01-09 12:37:00,
2013-01-09 07:42:00,43.3,37.2,30.33,SW,224,5.0,10.0,79,0.00,,OVC075,0.00,VWS V14.01,2013-01-09 12:42:00,
2013-01-09 07:47:00,43.1,36.7,30.34,WSW,243,8.0,11.0,78,0.00,,OVC075,0.00,VWS V14.01,2013-01-09 12:47:00,
2013-01-09 07:52:00,42.9,36.5,30.34,SSW,211,7.0,11.0,78,0.00,,OVC075,0.00,VWS V14.01,2013-01-09 12:52:00,
2013-01-09 07:57:00,42.8,36.8,30.33,SW,224,10.0,11.0,79,0.00,,OVC075,0.00,VWS V14.01,2013-01-09 12:57:00,
2013-01-09 08:02:00,42.8,36.8,30.33,SW,233,6.0,15.0,79,0.00,,OVC085,0.00,VWS V14.01,2013-01-09 13:02:00,
2013-01-09 08:07:00,42.8,36.8,30.35,South,170,3.0,10.0,79,0.00,,OVC085,0.00,VWS V14.01,2013-01-09 13:07:00,
2013-01-09 08:12:00,42.7,36.7,30.35,West,280,4.0,10.0,79,0.00,,OVC085,0.00,VWS V14.01,2013-01-09 13:12:00,
2013-01-09 08:17:00,42.5,36.8,30.35,SW,236,4.0,9.0,80,0.00,,OVC085,0.00,VWS V14.01,2013-01-09 13:17:00,
2013-01-09 08:22:00,42.3,36.6,30.35,SW,231,3.0,6.0,80,0.00,,OVC085,0.00,VWS V14.01,2013-01-09 13:22:00,
2013-01-09 08:27:00,42.2,36.8,30.36,WSW,253,4.0,7.0,81,0.00,,OVC085,0.00,VWS V14.01,2013-01-09 13:27:00,
2013-01-09 08:32:00,42.1,36.7,30.36,SW,217,5.0,10.0,81,0.00,,OVC085,0.00,VWS V14.01,2013-01-09 13:32:00,
2013-01-09 08:37:00,42.2,36.8,30.36,SW,236,6.0,11.0,81,0.00,,OVC085,0.00,VWS V14.01,2013-01-09 13:37:00,
2013-01-09 08:42:00,42.1,37.0,30.36,SW,215,4.0,7.0,82,0.00,,OVC085,0.00,VWS V14.01,2013-01-09 13:42:00,
2013-01-09 08:47:00,42.0,37.2,30.36,SW,229,6.0,8.0,83,0.01,,OVC085,0.01,VWS V14.01,2013-01-09 13:47:00,
2013-01-09 08:52:00,41.8,37.3,30.35,SSW,205,4.0,7.0,84,0.01,,OVC085,0.01,VWS V14.01,2013-01-09 13:52:00,
2013-01-09 08:57:00,41.8,37.6,30.34,SSW,197,4.0,7.0,85,0.01,,OVC085,0.01,VWS V14.01,2013-01-09 13:57:00,
2013-01-09 09:02:00,41.8,37.6,30.34,South,177,4.0,9.0,85,0.01,,-RA,0.01,VWS V14.01,2013-01-09 14:02:00,
2013-01-09 09:07:00,41.8,37.6,30.34,South,174,3.0,10.0,85,0.01,,-RA,0.01,VWS V14.01,2013-01-09 14:07:00,
2013-01-09 09:12:00,41.9,37.7,30.34,WSW,249,7.0,9.0,85,0.01,,-RA,0.01,VWS V14.01,2013-01-09 14:12:00,
2013-01-09 09:17:00,42.0,37.8,30.35,SW,228,3.0,8.0,85,0.01,,-RA,0.01,VWS V14.01,2013-01-09 14:17:00,
2013-01-09 09:22:00,42.2,38.0,30.36,South,188,5.0,10.0,85,0.02,,-RA,0.02,VWS V14.01,2013-01-09 14:22:00,
2013-01-09 09:27:00,42.2,38.0,30.36,SW,224,5.0,9.0,85,0.02,,-RA,0.02,VWS V14.01,2013-01-09 14:27:00,
2013-01-09 09:32:00,42.1,37.9,30.36,WSW,239,4.0,9.0,85,0.02,,-RA,0.02,VWS V14.01,2013-01-09 14:32:00,
2013-01-09 09:37:00,42.1,38.2,30.35,WSW,243,8.0,9.0,86,0.03,,-RA,0.03,VWS V14.01,2013-01-09 14:37:00,
2013-01-09 09:42:00,42.1,38.2,30.36,SW,215,3.0,9.0,86,0.03,,-RA,0.03,VWS V14.01,2013-01-09 14:42:00,
2013-01-09 09:47:00,42.0,38.4,30.36,SW,217,4.0,8.0,87,0.03,,-RA,0.04,VWS V14.01,2013-01-09 14:47:00,
2013-01-09 09:52:00,41.9,38.6,30.37,South,185,2.0,6.0,88,0.04,,-RA,0.05,VWS V14.01,2013-01-09 14:52:00,
2013-01-09 09:57:00,41.7,38.4,30.36,SW,221,4.0,8.0,88,0.05,,-RA,0.06,VWS V14.01,2013-01-09 14:57:00,
2013-01-09 10:02:00,41.5,38.5,30.37,SSW,204,4.0,8.0,89,0.05,,-RA,0.06,VWS V14.01,2013-01-09 15:02:00,
2013-01-09 10:07:00,41.5,38.5,30.36,SW,224,7.0,8.0,89,0.05,,-RA,0.06,VWS V14.01,2013-01-09 15:07:00,
2013-01-09 10:12:00,41.7,38.7,30.37,SW,221,5.0,6.0,89,0.05,,-RA,0.06,VWS V14.01,2013-01-09 15:12:00,
2013-01-09 10:17:00,41.7,38.7,30.37,WSW,249,4.0,7.0,89,0.05,,-RA,0.06,VWS V14.01,2013-01-09 15:17:00,
2013-01-09 10:22:00,41.9,38.9,30.37,SW,222,6.0,8.0,89,0.04,,-RA,0.06,VWS V14.01,2013-01-09 15:22:00,
2013-01-09 10:27:00,42.0,39.0,30.37,SW,226,6.0,8.0,89,0.04,,-RA,0.06,VWS V14.01,2013-01-09 15:27:00,
2013-01-09 10:32:00,42.0,39.0,30.38,SW,235,9.0,10.0,89,0.04,,-RA,0.06,VWS V14.01,2013-01-09 15:32:00,
2013-01-09 10:37:00,42.0,39.0,30.38,SW,236,2.0,5.0,89,0.03,,-RA,0.06,VWS V14.01,2013-01-09 15:37:00,
2013-01-09 10:42:00,41.9,38.9,30.38,SW,214,5.0,9.0,89,0.03,,-RA,0.06,VWS V14.01,2013-01-09 15:42:00,
2013-01-09 10:47:00,41.9,38.9,30.38,SW,228,4.0,6.0,89,0.02,,-RA,0.06,VWS V14.01,2013-01-09 15:47:00,
2013-01-09 10:52:00,42.0,39.3,30.38,WSW,256,5.0,7.0,90,0.01,,-RA,0.06,VWS V14.01,2013-01-09 15:52:00,
2013-01-09 10:57:00,42.0,39.3,30.38,SW,235,3.0,6.0,90,0.00,,-RA,0.06,VWS V14.01,2013-01-09 15:57:00,
2013-01-09 11:02:00,42.1,39.4,30.38,WSW,256,7.0,7.0,90,0.00,,OVC130,0.06,VWS V14.01,2013-01-09 16:02:00,
2013-01-09 11:07:00,42.1,39.4,30.38,SSW,212,7.0,8.0,90,0.00,,OVC130,0.06,VWS V14.01,2013-01-09 16:07:00,
2013-01-09 11:12:00,42.2,39.5,30.38,SSW,198,1.0,5.0,90,0.00,,OVC130,0.06,VWS V14.01,2013-01-09 16:12:00,
2013-01-09 11:17:00,42.3,39.6,30.38,WSW,239,10.0,10.0,90,0.00,,OVC130,0.06,VWS V14.01,2013-01-09 16:17:00,
2013-01-09 11:22:00,42.5,39.5,30.39,WSW,237,7.0,10.0,89,0.00,,OVC130,0.06,VWS V14.01,2013-01-09 16:22:00,
2013-01-09 11:27:00,42.6,39.6,30.38,SW,233,4.0,7.0,89,0.00,,OVC130,0.06,VWS V14.01,2013-01-09 16:27:00,
2013-01-09 11:32:00,42.7,39.7,30.39,SW,217,3.0,11.0,89,0.00,,OVC130,0.06,VWS V14.01,2013-01-09 16:32:00,
2013-01-09 11:37:00,42.8,39.8,30.39,West,262,5.0,8.0,89,0.00,,OVC130,0.06,VWS V14.01,2013-01-09 16:37:00,
2013-01-09 11:42:00,42.9,39.9,30.38,SSW,207,2.0,6.0,89,0.00,,OVC130,0.06,VWS V14.01,2013-01-09 16:42:00,
2013-01-09 11:47:00,42.9,39.9,30.38,WSW,238,1.0,6.0,89,0.00,,OVC130,0.06,VWS V14.01,2013-01-09 16:47:00,
2013-01-09 11:52:00,42.9,39.9,30.38,WSW,258,1.0,5.0,89,0.00,,OVC130,0.06,VWS V14.01,2013-01-09 16:52:00,
2013-01-09 11:57:00,42.8,39.8,30.38,SW,221,3.0,8.0,89,0.00,,OVC130,0.06,VWS V14.01,2013-01-09 16:57:00,
2013-01-09 12:02:00,43.1,40.4,30.38,SSW,194,4.0,5.0,90,0.00,,BKN200,0.06,VWS V14.01,2013-01-09 17:02:00,
2013-01-09 12:07:00,43.5,40.5,30.37,SW,221,2.0,4.0,89,0.00,,BKN200,0.06,VWS V14.01,2013-01-09 17:07:00,
2013-01-09 12:12:00,43.8,40.5,30.37,WSW,239,5.0,10.0,88,0.00,,BKN200,0.06,VWS V14.01,2013-01-09 17:12:00,
2013-01-09 12:17:00,44.1,40.5,30.37,SW,235,8.0,12.0,87,0.00,,BKN200,0.06,VWS V14.01,2013-01-09 17:17:00,
2013-01-09 12:22:00,44.3,40.7,30.37,West,281,6.0,9.0,87,0.00,,BKN200,0.06,VWS V14.01,2013-01-09 17:22:00,
2013-01-09 12:27:00,44.5,40.9,30.38,WSW,256,6.0,10.0,87,0.00,,BKN200,0.06,VWS V14.01,2013-01-09 17:27:00,
2013-01-09 12:32:00,44.6,41.0,30.38,West,281,3.0,6.0,87,0.00,,BKN200,0.06,VWS V14.01,2013-01-09 17:32:00,
2013-01-09 12:37:00,44.8,40.9,30.38,West,274,4.0,12.0,86,0.00,,BKN200,0.06,VWS V14.01,2013-01-09 17:37:00,
2013-01-09 12:42:00,44.8,40.9,30.38,WSW,249,11.0,12.0,86,0.00,,BKN200,0.06,VWS V14.01,2013-01-09 17:42:00,
2013-01-09 12:47:00,44.8,40.9,30.38,WNW,293,4.0,7.0,86,0.00,,BKN200,0.06,VWS V14.01,2013-01-09 17:47:00,
2013-01-09 12:52:00,45.1,41.2,30.38,WSW,243,8.0,8.0,86,0.00,,BKN200,0.06,VWS V14.01,2013-01-09 17:52:00,
2013-01-09 12:57:00,45.1,40.9,30.38,WSW,255,3.0,10.0,85,0.00,,BKN200,0.06,VWS V14.01,2013-01-09 17:57:00,
2013-01-09 13:02:00,45.3,41.1,30.38,West,260,9.0,11.0,85,0.00,,BKN200,0.06,VWS V14.01,2013-01-09 18:02:00,
2013-01-09 13:07:00,45.3,40.8,30.37,WSW,255,7.0,9.0,84,0.00,,BKN200,0.06,VWS V14.01,2013-01-09 18:07:00,
2013-01-09 13:12:00,45.5,41.0,30.37,WSW,257,3.0,8.0,84,0.00,,BKN200,0.06,VWS V14.01,2013-01-09 18:12:00,
2013-01-09 13:17:00,45.8,40.9,30.37,WSW,251,7.0,12.0,83,0.00,,BKN200,0.06,VWS V14.01,2013-01-09 18:17:00,
2013-01-09 13:22:00,45.9,41.0,30.37,West,276,8.0,13.0,83,0.00,,BKN200,0.06,VWS V14.01,2013-01-09 18:22:00,
2013-01-09 13:27:00,46.0,41.1,30.37,WSW,249,5.0,6.0,83,0.00,,BKN200,0.06,VWS V14.01,2013-01-09 18:27:00,
2013-01-09 13:32:00,46.3,41.1,30.36,West,266,7.0,10.0,82,0.00,,BKN200,0.06,VWS V14.01,2013-01-09 18:32:00,
2013-01-09 13:37:00,46.4,41.2,30.37,West,278,3.0,7.0,82,0.00,,BKN200,0.06,VWS V14.01,2013-01-09 18:37:00,
2013-01-09 13:41:00,46.5,41.3,30.37,WNW,293,2.0,8.0,82,0.00,,BKN200,0.06,VWS V14.01,2013-01-09 18:41:00,
2013-01-09 13:44:00,46.6,41.1,30.37,WSW,248,9.0,9.0,81,0.00,,BKN200,0.06,VWS V14.01,2013-01-09 18:44:00,
2013-01-09 13:48:00,46.5,41.0,30.37,WSW,252,10.0,13.0,81,0.00,,BKN200,0.06,VWS V14.01,2013-01-09 18:48:00,
2013-01-09 13:53:00,46.5,40.7,30.37,WSW,240,8.0,13.0,80,0.00,,BKN200,0.06,VWS V14.01,2013-01-09 18:53:00,
2013-01-09 13:58:00,46.7,41.2,30.37,WNW,302,4.0,10.0,81,0.00,,BKN200,0.06,VWS V14.01,2013-01-09 18:58:00,
2013-01-09 14:03:00,46.8,41.0,30.37,WSW,251,4.0,10.0,80,0.00,,BKN220,0.06,VWS V14.01,2013-01-09 19:03:00,
2013-01-09 14:08:00,47.0,40.8,30.37,WNW,287,4.0,9.0,79,0.00,,BKN220,0.06,VWS V14.01,2013-01-09 19:08:00,
2013-01-09 14:13:00,47.2,40.7,30.37,SW,232,6.0,13.0,78,0.00,,BKN220,0.06,VWS V14.01,2013-01-09 19:13:00,
2013-01-09 14:18:00,47.1,40.6,30.38,WSW,243,10.0,11.0,78,0.00,,BKN220,0.06,VWS V14.01,2013-01-09 19:18:00,
2013-01-09 14:23:00,47.1,40.6,30.37,WSW,237,9.0,13.0,78,0.00,,BKN220,0.06,VWS V14.01,2013-01-09 19:23:00,
2013-01-09 14:28:00,47.1,40.6,30.37,West,281,5.0,9.0,78,0.00,,BKN220,0.06,VWS V14.01,2013-01-09 19:28:00,
2013-01-09 14:33:00,47.2,40.7,30.38,West,263,7.0,11.0,78,0.00,,BKN220,0.06,VWS V14.01,2013-01-09 19:33:00,
2013-01-09 14:38:00,47.3,40.8,30.38,WSW,248,4.0,10.0,78,0.00,,BKN220,0.06,VWS V14.01,2013-01-09 19:38:00,
2013-01-09 14:43:00,47.4,40.6,30.38,WNW,293,12.0,13.0,77,0.00,,BKN220,0.06,VWS V14.01,2013-01-09 19:43:00,
2013-01-09 14:48:00,47.5,40.3,30.39,WSW,251,5.0,10.0,76,0.00,,BKN220,0.06,VWS V14.01,2013-01-09 19:48:00,
2013-01-09 14:53:00,47.8,40.6,30.40,WSW,249,4.0,9.0,76,0.00,,BKN220,0.06,VWS V14.01,2013-01-09 19:53:00,
2013-01-09 14:58:00,47.8,40.3,30.39,South,177,3.0,11.0,75,0.00,,BKN220,0.06,VWS V14.01,2013-01-09 19:58:00,
2013-01-09 15:03:00,47.9,40.4,30.39,WSW,252,3.0,12.0,75,0.00,,BKN220,0.06,VWS V14.01,2013-01-09 20:03:00,
2013-01-09 15:08:00,48.0,40.1,30.39,SW,221,4.0,13.0,74,0.00,,BKN220,0.06,VWS V14.01,2013-01-09 20:08:00,
2013-01-09 15:13:00,48.2,40.3,30.39,SW,222,3.0,7.0,74,0.00,,BKN220,0.06,VWS V14.01,2013-01-09 20:13:00,
2013-01-09 15:18:00,48.3,40.4,30.39,SW,231,5.0,8.0,74,0.00,,BKN220,0.06,VWS V14.01,2013-01-09 20:18:00,
2013-01-09 15:23:00,48.3,40.4,30.39,West,267,4.0,6.0,74,0.00,,BKN220,0.06,VWS V14.01,2013-01-09 20:23:00,
2013-01-09 15:28:00,48.1,40.2,30.40,WNW,283,3.0,10.0,74,0.00,,BKN220,0.06,VWS V14.01,2013-01-09 20:28:00,
2013-01-09 15:33:00,48.0,39.8,30.40,West,276,7.0,12.0,73,0.00,,BKN220,0.06,VWS V14.01,2013-01-09 20:33:00,
2013-01-09 15:38:00,47.8,39.9,30.40,WSW,255,8.0,10.0,74,0.00,,BKN220,0.06,VWS V14.01,2013-01-09 20:38:00,
2013-01-09 15:43:00,47.7,39.5,30.40,SSW,193,11.0,15.0,73,0.00,,BKN220,0.06,VWS V14.01,2013-01-09 20:43:00,
2013-01-09 15:48:00,47.5,39.6,30.41,WSW,255,4.0,9.0,74,0.00,,BKN220,0.06,VWS V14.01,2013-01-09 20:48:00,
2013-01-09 15:53:00,47.4,39.9,30.41,South,189,6.0,11.0,75,0.00,,BKN220,0.06,VWS V14.01,2013-01-09 20:53:00,
2013-01-09 15:58:00,47.5,39.6,30.41,WSW,256,6.0,13.0,74,0.00,,BKN220,0.06,VWS V14.01,2013-01-09 20:58:00,
2013-01-09 16:03:00,47.6,40.1,30.41,WSW,251,7.0,9.0,75,0.00,,BKN220,0.06,VWS V14.01,2013-01-09 21:03:00,
2013-01-09 16:08:00,47.4,39.9,30.41,West,264,3.0,9.0,75,0.00,,BKN220,0.06,VWS V14.01,2013-01-09 21:08:00,
2013-01-09 16:13:00,47.4,39.9,30.41,SW,235,6.0,11.0,75,0.00,,BKN220,0.06,VWS V14.01,2013-01-09 21:13:00,
2013-01-09 16:18:00,47.1,39.9,30.41,West,277,4.0,8.0,76,0.00,,BKN220,0.06,VWS V14.01,2013-01-09 21:18:00,
2013-01-09 16:23:00,46.9,39.7,30.41,West,266,5.0,8.0,76,0.00,,BKN220,0.06,VWS V14.01,2013-01-09 21:23:00,
2013-01-09 16:28:00,46.8,40.0,30.41,WSW,251,3.0,6.0,77,0.00,,BKN220,0.06,VWS V14.01,2013-01-09 21:28:00,
2013-01-09 16:33:00,46.7,39.9,30.41,WNW,282,3.0,8.0,77,0.00,,BKN220,0.06,VWS V14.01,2013-01-09 21:33:00,
2013-01-09 16:38:00,46.6,40.1,30.42,SSE,162,2.0,7.0,78,0.00,,BKN220,0.06,VWS V14.01,2013-01-09 21:38:00,
2013-01-09 16:43:00,46.4,39.9,30.42,SW,236,5.0,5.0,78,0.00,,BKN220,0.06,VWS V14.01,2013-01-09 21:43:00,
2013-01-09 16:48:00,46.2,39.7,30.42,SE,127,0.0,6.0,78,0.00,,BKN220,0.06,VWS V14.01,2013-01-09 21:48:00,
2013-01-09 16:53:00,46.0,39.5,30.42,WSW,249,6.0,8.0,78,0.00,,BKN220,0.06,VWS V14.01,2013-01-09 21:53:00,
2013-01-09 16:58:00,45.8,39.7,30.42,WSW,255,4.0,9.0,79,0.00,,BKN220,0.06,VWS V14.01,2013-01-09 21:58:00,
2013-01-09 17:03:00,45.4,39.6,30.43,WSW,239,5.0,8.0,80,0.00,,BKN220,0.06,VWS V14.01,2013-01-09 22:03:00,
2013-01-09 17:08:00,45.1,39.6,30.43,WSW,246,6.0,7.0,81,0.00,,BKN220,0.06,VWS V14.01,2013-01-09 22:08:00,
2013-01-09 17:13:00,44.7,39.2,30.43,West,270,3.0,5.0,81,0.00,,BKN220,0.06,VWS V14.01,2013-01-09 22:13:00,
2013-01-09 17:18:00,44.4,39.3,30.44,WSW,250,3.0,5.0,82,0.00,,BKN220,0.06,VWS V14.01,2013-01-09 22:18:00,
2013-01-09 17:23:00,44.1,39.0,30.44,WSW,252,5.0,5.0,82,0.00,,BKN220,0.06,VWS V14.01,2013-01-09 22:23:00,
2013-01-09 17:28:00,43.8,39.0,30.44,SW,229,5.0,7.0,83,0.00,,BKN220,0.06,VWS V14.01,2013-01-09 22:28:00,
2013-01-09 17:33:00,43.7,38.9,30.44,West,281,3.0,6.0,83,0.00,,BKN220,0.06,VWS V14.01,2013-01-09 22:33:00,
2013-01-09 17:38:00,43.5,38.7,30.44,WSW,258,3.0,6.0,83,0.00,,BKN220,0.06,VWS V14.01,2013-01-09 22:38:00,
2013-01-09 17:43:00,43.2,38.4,30.44,WSW,256,4.0,5.0,83,0.00,,BKN220,0.06,VWS V14.01,2013-01-09 22:43:00,
2013-01-09 17:48:00,42.9,38.4,30.45,West,278,3.0,6.0,84,0.00,,BKN220,0.06,VWS V14.01,2013-01-09 22:48:00,
2013-01-09 17:53:00,42.9,38.4,30.45,WSW,250,4.0,6.0,84,0.00,,BKN220,0.06,VWS V14.01,2013-01-09 22:53:00,
2013-01-09 17:58:00,42.9,38.1,30.45,WNW,283,3.0,5.0,83,0.00,,BKN220,0.06,VWS V14.01,2013-01-09 22:58:00,
2013-01-09 18:03:00,42.6,38.1,30.46,SSW,204,2.0,4.0,84,0.00,,BKN220,0.06,VWS V14.01,2013-01-09 23:03:00,
2013-01-09 18:08:00,42.3,37.8,30.46,West,274,4.0,4.0,84,0.00,,BKN220,0.06,VWS V14.01,2013-01-09 23:08:00,
2013-01-09 18:13:00,42.1,37.6,30.46,WSW,249,3.0,4.0,84,0.00,,BKN220,0.06,VWS V14.01,2013-01-09 23:13:00,
2013-01-09 18:18:00,41.8,37.3,30.47,WSW,242,3.0,4.0,84,0.00,,BKN220,0.06,VWS V14.01,2013-01-09 23:18:00,
2013-01-09 18:23:00,41.5,37.3,30.47,WSW,245,2.0,3.0,85,0.00,,BKN220,0.06,VWS V14.01,2013-01-09 23:23:00,
2013-01-09 18:28:00,41.3,37.1,30.47,West,263,2.0,3.0,85,0.00,,BKN220,0.06,VWS V14.01,2013-01-09 23:28:00,
2013-01-09 18:33:00,41.1,36.9,30.47,West,262,1.0,2.0,85,0.00,,BKN220,0.06,VWS V14.01,2013-01-09 23:33:00,
2013-01-09 18:38:00,41.0,36.8,30.48,West,264,3.0,3.0,85,0.00,,BKN220,0.06,VWS V14.01,2013-01-09 23:38:00,
2013-01-09 18:43:00,41.0,36.8,30.48,West,271,1.0,3.0,85,0.00,,BKN220,0.06,VWS V14.01,2013-01-09 23:43:00,
2013-01-09 18:48:00,40.9,36.5,30.48,WSW,255,4.0,4.0,84,0.00,,BKN220,0.06,VWS V14.01,2013-01-09 23:48:00,
2013-01-09 18:53:00,40.8,36.3,30.48,WSW,252,2.0,3.0,84,0.00,,BKN220,0.06,VWS V14.01,2013-01-09 23:53:00,
2013-01-09 18:58:00,40.6,36.2,30.49,West,263,3.0,5.0,84,0.00,,BKN220,0.06,VWS V14.01,2013-01-09 23:58:00,
2013-01-09 19:03:00,40.4,36.0,30.49,WSW,246,2.0,3.0,84,0.00,,BKN220,0.06,VWS V14.01,2013-01-10 00:03:00,
2013-01-09 19:08:00,40.4,35.7,30.49,WSW,252,2.0,4.0,83,0.00,,BKN220,0.06,VWS V14.01,2013-01-10 00:08:00,
2013-01-09 19:13:00,40.4,35.7,30.50,West,277,2.0,3.0,83,0.00,,BKN220,0.06,VWS V14.01,2013-01-10 00:13:00,
2013-01-09 19:18:00,40.2,35.5,30.50,WSW,250,2.0,3.0,83,0.00,,BKN220,0.06,VWS V14.01,2013-01-10 00:18:00,
2013-01-09 19:23:00,40.0,35.0,30.50,West,277,2.0,3.0,82,0.00,,BKN220,0.06,VWS V14.01,2013-01-10 00:23:00,
2013-01-09 19:28:00,39.9,34.9,30.50,WSW,251,1.0,3.0,82,0.00,,BKN220,0.06,VWS V14.01,2013-01-10 00:28:00,
2013-01-09 19:33:00,39.8,34.8,30.50,WSW,240,2.0,3.0,82,0.00,,BKN220,0.06,VWS V14.01,2013-01-10 00:33:00,
2013-01-09 19:38:00,39.5,34.5,30.50,WSW,251,1.0,3.0,82,0.00,,BKN220,0.06,VWS V14.01,2013-01-10 00:38:00,
2013-01-09 19:43:00,39.4,34.4,30.50,WSW,250,2.0,3.0,82,0.00,,BKN220,0.06,VWS V14.01,2013-01-10 00:43:00,
2013-01-09 19:48:00,39.4,34.4,30.51,WSW,249,1.0,1.0,82,0.00,,BKN220,0.06,VWS V14.01,2013-01-10 00:48:00,
2013-01-09 19:53:00,39.3,34.3,30.50,West,277,1.0,2.0,82,0.00,,BKN220,0.06,VWS V14.01,2013-01-10 00:53:00,
2013-01-09 19:58:00,39.3,34.0,30.50,West,266,0.0,2.0,81,0.00,,BKN220,0.06,VWS V14.01,2013-01-10 00:58:00,
2013-01-09 20:03:00,39.3,34.0,30.51,WSW,257,1.0,2.0,81,0.00,,SCT220,0.06,VWS V14.01,2013-01-10 01:03:00,
2013-01-09 20:08:00,39.2,33.9,30.51,WSW,249,1.0,2.0,81,0.00,,SCT220,0.06,VWS V14.01,2013-01-10 01:08:00,
2013-01-09 20:13:00,39.1,33.8,30.51,West,263,2.0,2.0,81,0.00,,SCT220,0.06,VWS V14.01,2013-01-10 01:13:00,
2013-01-09 20:18:00,39.0,33.7,30.51,WSW,242,2.0,3.0,81,0.00,,SCT220,0.06,VWS V14.01,2013-01-10 01:18:00,
2013-01-09 20:23:00,38.8,33.5,30.51,SW,219,1.0,3.0,81,0.00,,SCT220,0.06,VWS V14.01,2013-01-10 01:23:00,
2013-01-09 20:28:00,38.7,33.1,30.52,WSW,247,0.0,1.0,80,0.00,,SCT220,0.06,VWS V14.01,2013-01-10 01:28:00,
2013-01-09 20:33:00,38.5,33.2,30.52,WSW,239,0.0,1.0,81,0.00,,SCT220,0.06,VWS V14.01,2013-01-10 01:33:00,
2013-01-09 20:38:00,38.4,33.1,30.52,SSW,207,2.0,2.0,81,0.00,,SCT220,0.06,VWS V14.01,2013-01-10 01:38:00,
2013-01-09 20:43:00,38.4,33.1,30.52,SW,231,2.0,3.0,81,0.00,,SCT220,0.06,VWS V14.01,2013-01-10 01:43:00,
2013-01-09 20:48:00,38.5,32.9,30.52,SW,224,3.0,3.0,80,0.00,,SCT220,0.06,VWS V14.01,2013-01-10 01:48:00,
2013-01-09 20:53:00,38.7,32.8,30.53,SSW,210,0.0,3.0,79,0.00,,SCT220,0.06,VWS V14.01,2013-01-10 01:53:00,
2013-01-09 20:58:00,38.5,32.6,30.52,SW,228,1.0,1.0,79,0.00,,SCT220,0.06,VWS V14.01,2013-01-10 01:58:00,
2013-01-09 21:03:00,38.4,32.8,30.53,SW,231,1.0,3.0,80,0.00,,SCT220,0.06,VWS V14.01,2013-01-10 02:03:00,
2013-01-09 21:08:00,38.2,32.6,30.53,SW,224,1.0,1.0,80,0.00,,SCT220,0.06,VWS V14.01,2013-01-10 02:08:00,
2013-01-09 21:13:00,38.0,32.4,30.53,WSW,239,2.0,2.0,80,0.00,,SCT220,0.06,VWS V14.01,2013-01-10 02:13:00,
2013-01-09 21:18:00,38.0,32.4,30.53,SW,235,3.0,4.0,80,0.00,,SCT220,0.06,VWS V14.01,2013-01-10 02:18:00,
2013-01-09 21:23:00,38.1,32.2,30.53,WSW,242,1.0,3.0,79,0.00,,SCT220,0.06,VWS V14.01,2013-01-10 02:23:00,
2013-01-09 21:28:00,38.1,32.2,30.54,SW,229,0.0,0.0,79,0.00,,SCT220,0.06,VWS V14.01,2013-01-10 02:28:00,
2013-01-09 21:33:00,38.1,32.2,30.53,SW,225,0.0,1.0,79,0.00,,SCT220,0.06,VWS V14.01,2013-01-10 02:33:00,
2013-01-09 21:38:00,38.0,32.1,30.54,WSW,249,0.0,1.0,79,0.00,,SCT220,0.06,VWS V14.01,2013-01-10 02:38:00,
2013-01-09 21:43:00,38.0,32.1,30.54,SW,218,0.0,2.0,79,0.00,,SCT220,0.06,VWS V14.01,2013-01-10 02:43:00,
2013-01-09 21:48:00,38.0,32.1,30.54,SW,231,2.0,2.0,79,0.00,,SCT220,0.06,VWS V14.01,2013-01-10 02:48:00,
2013-01-09 21:53:00,38.0,31.8,30.54,SW,214,1.0,2.0,78,0.00,,SCT220,0.06,VWS V14.01,2013-01-10 02:53:00,
2013-01-09 21:58:00,38.0,31.8,30.55,SW,233,2.0,2.0,78,0.00,,SCT220,0.06,VWS V14.01,2013-01-10 02:58:00,
2013-01-09 22:03:00,38.1,31.9,30.55,SSW,211,2.0,2.0,78,0.00,,CLR,0.06,VWS V14.01,2013-01-10 03:03:00,
2013-01-09 22:08:00,38.1,31.9,30.55,SW,223,1.0,2.0,78,0.00,,CLR,0.06,VWS V14.01,2013-01-10 03:08:00,
2013-01-09 22:13:00,38.0,31.8,30.55,SW,233,1.0,2.0,78,0.00,,CLR,0.06,VWS V14.01,2013-01-10 03:13:00,
2013-01-09 22:18:00,37.9,31.7,30.55,SSW,210,1.0,1.0,78,0.00,,CLR,0.06,VWS V14.01,2013-01-10 03:18:00,
2013-01-09 22:23:00,37.7,31.8,30.55,SSW,200,1.0,1.0,79,0.00,,CLR,0.06,VWS V14.01,2013-01-10 03:23:00,
2013-01-09 22:28:00,37.5,31.6,30.56,SSW,207,1.0,2.0,79,0.00,,CLR,0.06,VWS V14.01,2013-01-10 03:28:00,
2013-01-09 22:33:00,37.3,31.4,30.56,SW,217,1.0,1.0,79,0.00,,CLR,0.06,VWS V14.01,2013-01-10 03:33:00,
2013-01-09 22:38:00,37.1,31.2,30.56,SSW,212,1.0,2.0,79,0.00,,CLR,0.06,VWS V14.01,2013-01-10 03:38:00,
2013-01-09 22:43:00,37.0,31.4,30.56,SSW,211,1.0,2.0,80,0.00,,CLR,0.06,VWS V14.01,2013-01-10 03:43:00,
2013-01-09 22:48:00,36.7,31.1,30.57,SW,223,0.0,1.0,80,0.00,,CLR,0.06,VWS V14.01,2013-01-10 03:48:00,
2013-01-09 22:53:00,36.5,31.2,30.57,SW,224,0.0,1.0,81,0.00,,CLR,0.06,VWS V14.01,2013-01-10 03:53:00,
2013-01-09 22:58:00,36.4,30.8,30.58,WSW,240,0.0,1.0,80,0.00,,CLR,0.06,VWS V14.01,2013-01-10 03:58:00,
2013-01-09 23:03:00,36.3,31.0,30.58,SSW,212,1.0,3.0,81,0.00,,FEW220,0.06,VWS V14.01,2013-01-10 04:03:00,
2013-01-09 23:08:00,36.4,31.1,30.58,SSW,211,0.0,1.0,81,0.00,,FEW220,0.06,VWS V14.01,2013-01-10 04:08:00,
2013-01-09 23:13:00,36.2,30.9,30.58,SW,214,1.0,2.0,81,0.00,,FEW220,0.06,VWS V14.01,2013-01-10 04:13:00,
2013-01-09 23:18:00,36.3,31.0,30.58,SW,219,1.0,2.0,81,0.00,,FEW220,0.06,VWS V14.01,2013-01-10 04:18:00,
2013-01-09 23:23:00,36.3,31.0,30.58,SW,217,0.0,1.0,81,0.00,,FEW220,0.06,VWS V14.01,2013-01-10 04:23:00,
2013-01-09 23:28:00,36.3,31.0,30.58,SW,228,1.0,2.0,81,0.00,,FEW220,0.06,VWS V14.01,2013-01-10 04:28:00,
2013-01-09 23:33:00,36.3,31.0,30.58,SW,228,0.0,1.0,81,0.00,,FEW220,0.06,VWS V14.01,2013-01-10 04:33:00,
2013-01-09 23:38:00,36.1,30.8,30.58,SSW,207,0.0,2.0,81,0.00,,FEW220,0.06,VWS V14.01,2013-01-10 04:38:00,
2013-01-09 23:43:00,36.1,30.8,30.59,WSW,239,0.0,1.0,81,0.00,,FEW220,0.06,VWS V14.01,2013-01-10 04:43:00,
2013-01-09 23:48:00,36.1,30.8,30.58,SW,226,0.0,0.0,81,0.00,,FEW220,0.06,VWS V14.01,2013-01-10 04:48:00,
2013-01-09 23:53:00,36.1,30.8,30.58,SSW,198,0.0,1.0,81,0.00,,FEW220,0.06,VWS V14.01,2013-01-10 04:53:00,
2013-01-09 23:58:00,36.1,30.8,30.58,SW,233,0.0,0.0,81,0.00,,FEW220,0.06,VWS V14.01,2013-01-10 04:58:00,